sensor_id;sensor_type;location;lat;lon;timestamp;temperature;humidity
18502;DHT22;68437;52.236;5.710;2024-03-17T00:02:26;3.40;99.90
18502;DHT22;68437;52.236;5.710;2024-03-17T00:04:52;3.40;99.90
18502;DHT22;68437;52.236;5.710;2024-03-17T00:07:20;3.40;99.90
18502;DHT22;68437;52.236;5.710;2024-03-17T00:09:46;3.80;99.90
18502;DHT22;68437;52.236;5.710;2024-03-17T00:12:14;3.40;99.90
18502;DHT22;68437;52.236;5.710;2024-03-17T00:14:40;3.40;99.90
18502;DHT22;68437;52.236;5.710;2024-03-17T00:17:08;3.40;99.90
18502;DHT22;68437;52.236;5.710;2024-03-17T00:19:34;3.40;99.90
18502;DHT22;68437;52.236;5.710;2024-03-17T00:22:01;3.40;99.90
18502;DHT22;68437;52.236;5.710;2024-03-17T00:24:29;3.40;99.90
18502;DHT22;68437;52.236;5.710;2024-03-17T00:27:00;3.50;99.90
18502;DHT22;68437;52.236;5.710;2024-03-17T00:29:26;3.50;99.90
18502;DHT22;68437;52.236;5.710;2024-03-17T00:31:54;3.60;99.90
18502;DHT22;68437;52.236;5.710;2024-03-17T00:34:20;3.60;99.90
18502;DHT22;68437;52.236;5.710;2024-03-17T00:36:47;3.60;99.90
18502;DHT22;68437;52.236;5.710;2024-03-17T00:39:13;3.50;99.90
18502;DHT22;68437;52.236;5.710;2024-03-17T00:41:42;3.50;99.90
18502;DHT22;68437;52.236;5.710;2024-03-17T00:44:09;3.50;99.90
18502;DHT22;68437;52.236;5.710;2024-03-17T00:46:35;3.50;99.90
18502;DHT22;68437;52.236;5.710;2024-03-17T00:49:01;3.50;99.90
18502;DHT22;68437;52.236;5.710;2024-03-17T00:51:27;3.60;99.90
18502;DHT22;68437;52.236;5.710;2024-03-17T00:53:54;3.60;99.90
18502;DHT22;68437;52.236;5.710;2024-03-17T00:56:22;3.60;99.90
18502;DHT22;68437;52.236;5.710;2024-03-17T00:58:50;3.60;99.90
18502;DHT22;68437;52.236;5.710;2024-03-17T01:01:17;3.60;99.90
18502;DHT22;68437;52.236;5.710;2024-03-17T01:03:44;3.70;99.90
18502;DHT22;68437;52.236;5.710;2024-03-17T01:06:10;3.60;99.90
18502;DHT22;68437;52.236;5.710;2024-03-17T01:08:37;3.70;99.90
18502;DHT22;68437;52.236;5.710;2024-03-17T01:11:03;3.70;99.90
18502;DHT22;68437;52.236;5.710;2024-03-17T01:13:34;3.70;99.90
18502;DHT22;68437;52.236;5.710;2024-03-17T01:16:01;3.70;99.90
18502;DHT22;68437;52.236;5.710;2024-03-17T01:18:28;3.70;99.90
18502;DHT22;68437;52.236;5.710;2024-03-17T01:20:54;3.70;99.90
18502;DHT22;68437;52.236;5.710;2024-03-17T01:23:20;3.70;99.90
18502;DHT22;68437;52.236;5.710;2024-03-17T01:25:46;3.70;99.90
18502;DHT22;68437;52.236;5.710;2024-03-17T01:28:13;3.70;99.90
18502;DHT22;68437;52.236;5.710;2024-03-17T01:30:40;3.80;99.90
18502;DHT22;68437;52.236;5.710;2024-03-17T01:33:07;3.80;99.90
18502;DHT22;68437;52.236;5.710;2024-03-17T01:35:36;3.80;99.90
18502;DHT22;68437;52.236;5.710;2024-03-17T01:38:01;3.80;99.90
18502;DHT22;68437;52.236;5.710;2024-03-17T01:40:28;3.70;99.90
18502;DHT22;68437;52.236;5.710;2024-03-17T01:42:54;3.80;99.90
18502;DHT22;68437;52.236;5.710;2024-03-17T01:45:27;3.80;99.90
18502;DHT22;68437;52.236;5.710;2024-03-17T01:47:53;3.90;99.90
18502;DHT22;68437;52.236;5.710;2024-03-17T01:50:25;3.90;99.90
18502;DHT22;68437;52.236;5.710;2024-03-17T01:52:53;3.90;99.90
18502;DHT22;68437;52.236;5.710;2024-03-17T01:55:20;3.90;99.90
18502;DHT22;68437;52.236;5.710;2024-03-17T01:57:48;3.90;99.90
18502;DHT22;68437;52.236;5.710;2024-03-17T02:00:16;3.90;99.90
18502;DHT22;68437;52.236;5.710;2024-03-17T02:02:42;3.90;99.90
18502;DHT22;68437;52.236;5.710;2024-03-17T02:05:09;3.90;99.90
18502;DHT22;68437;52.236;5.710;2024-03-17T02:07:37;3.90;99.90
18502;DHT22;68437;52.236;5.710;2024-03-17T02:10:04;3.90;99.90
18502;DHT22;68437;52.236;5.710;2024-03-17T02:12:31;3.90;99.90
18502;DHT22;68437;52.236;5.710;2024-03-17T02:14:58;4.00;99.90
18502;DHT22;68437;52.236;5.710;2024-03-17T02:17:24;4.00;99.90
18502;DHT22;68437;52.236;5.710;2024-03-17T02:19:52;4.00;99.90
18502;DHT22;68437;52.236;5.710;2024-03-17T02:22:20;4.10;99.90
18502;DHT22;68437;52.236;5.710;2024-03-17T02:24:47;4.20;99.90
18502;DHT22;68437;52.236;5.710;2024-03-17T02:27:14;4.20;99.90
18502;DHT22;68437;52.236;5.710;2024-03-17T02:29:39;4.30;99.90
18502;DHT22;68437;52.236;5.710;2024-03-17T02:32:07;4.40;99.90
18502;DHT22;68437;52.236;5.710;2024-03-17T02:34:33;4.40;99.90
18502;DHT22;68437;52.236;5.710;2024-03-17T02:37:00;4.50;99.90
18502;DHT22;68437;52.236;5.710;2024-03-17T02:39:31;4.60;99.90
18502;DHT22;68437;52.236;5.710;2024-03-17T02:42:00;4.60;99.90
18502;DHT22;68437;52.236;5.710;2024-03-17T02:44:26;4.70;99.90
18502;DHT22;68437;52.236;5.710;2024-03-17T02:46:52;4.80;99.90
18502;DHT22;68437;52.236;5.710;2024-03-17T02:49:19;4.90;99.90
18502;DHT22;68437;52.236;5.710;2024-03-17T02:51:47;5.00;99.90
18502;DHT22;68437;52.236;5.710;2024-03-17T02:54:14;5.00;99.90
18502;DHT22;68437;52.236;5.710;2024-03-17T02:56:43;5.00;99.90
18502;DHT22;68437;52.236;5.710;2024-03-17T02:59:09;5.00;99.90
18502;DHT22;68437;52.236;5.710;2024-03-17T03:01:36;5.00;99.90
18502;DHT22;68437;52.236;5.710;2024-03-17T03:04:03;5.00;99.90
18502;DHT22;68437;52.236;5.710;2024-03-17T03:06:31;5.10;99.90
18502;DHT22;68437;52.236;5.710;2024-03-17T03:08:58;5.10;99.90
18502;DHT22;68437;52.236;5.710;2024-03-17T03:11:25;5.10;99.90
18502;DHT22;68437;52.236;5.710;2024-03-17T03:13:53;5.00;99.90
18502;DHT22;68437;52.236;5.710;2024-03-17T03:16:20;5.10;99.90
18502;DHT22;68437;52.236;5.710;2024-03-17T03:18:47;5.10;99.90
18502;DHT22;68437;52.236;5.710;2024-03-17T03:21:14;5.10;99.90
18502;DHT22;68437;52.236;5.710;2024-03-17T03:23:41;5.10;99.90
18502;DHT22;68437;52.236;5.710;2024-03-17T03:26:07;5.10;99.90
18502;DHT22;68437;52.236;5.710;2024-03-17T03:28:35;5.20;99.90
18502;DHT22;68437;52.236;5.710;2024-03-17T03:31:04;5.20;99.90
18502;DHT22;68437;52.236;5.710;2024-03-17T03:33:32;5.20;99.90
18502;DHT22;68437;52.236;5.710;2024-03-17T03:35:59;5.20;99.90
18502;DHT22;68437;52.236;5.710;2024-03-17T03:38:33;5.20;99.90
18502;DHT22;68437;52.236;5.710;2024-03-17T03:41:06;5.20;99.90
18502;DHT22;68437;52.236;5.710;2024-03-17T03:43:33;5.30;99.90
18502;DHT22;68437;52.236;5.710;2024-03-17T03:46:01;5.30;99.90
18502;DHT22;68437;52.236;5.710;2024-03-17T03:48:29;5.30;99.90
18502;DHT22;68437;52.236;5.710;2024-03-17T03:50:56;5.30;99.90
18502;DHT22;68437;52.236;5.710;2024-03-17T03:53:23;5.40;99.90
18502;DHT22;68437;52.236;5.710;2024-03-17T03:55:49;5.40;99.90
18502;DHT22;68437;52.236;5.710;2024-03-17T03:58:16;5.40;99.90
18502;DHT22;68437;52.236;5.710;2024-03-17T04:00:43;5.40;99.90
18502;DHT22;68437;52.236;5.710;2024-03-17T04:03:11;5.50;99.90
18502;DHT22;68437;52.236;5.710;2024-03-17T04:05:39;5.50;99.90
18502;DHT22;68437;52.236;5.710;2024-03-17T04:08:06;5.50;99.90
18502;DHT22;68437;52.236;5.710;2024-03-17T04:10:34;5.50;99.90
18502;DHT22;68437;52.236;5.710;2024-03-17T04:13:01;5.60;99.90
18502;DHT22;68437;52.236;5.710;2024-03-17T04:15:28;5.60;99.90
18502;DHT22;68437;52.236;5.710;2024-03-17T04:17:55;5.60;99.90
18502;DHT22;68437;52.236;5.710;2024-03-17T04:20:22;5.60;99.90
18502;DHT22;68437;52.236;5.710;2024-03-17T04:22:50;5.60;99.90
18502;DHT22;68437;52.236;5.710;2024-03-17T04:25:17;5.60;99.90
18502;DHT22;68437;52.236;5.710;2024-03-17T04:27:44;5.70;99.90
18502;DHT22;68437;52.236;5.710;2024-03-17T04:30:13;5.70;99.90
18502;DHT22;68437;52.236;5.710;2024-03-17T04:32:41;5.70;99.90
18502;DHT22;68437;52.236;5.710;2024-03-17T04:35:08;5.70;99.90
18502;DHT22;68437;52.236;5.710;2024-03-17T04:37:35;5.80;99.90
18502;DHT22;68437;52.236;5.710;2024-03-17T04:40:07;5.80;99.90
18502;DHT22;68437;52.236;5.710;2024-03-17T04:42:36;5.80;99.90
18502;DHT22;68437;52.236;5.710;2024-03-17T04:45:06;5.70;99.90
18502;DHT22;68437;52.236;5.710;2024-03-17T04:47:33;5.70;99.90
18502;DHT22;68437;52.236;5.710;2024-03-17T04:50:00;5.70;99.90
18502;DHT22;68437;52.236;5.710;2024-03-17T04:52:27;5.80;99.90
18502;DHT22;68437;52.236;5.710;2024-03-17T04:54:53;5.80;99.90
18502;DHT22;68437;52.236;5.710;2024-03-17T04:57:24;5.80;99.90
18502;DHT22;68437;52.236;5.710;2024-03-17T04:59:51;5.70;99.90
18502;DHT22;68437;52.236;5.710;2024-03-17T05:02:18;5.80;99.90
18502;DHT22;68437;52.236;5.710;2024-03-17T05:04:45;5.80;99.90
18502;DHT22;68437;52.236;5.710;2024-03-17T05:07:12;5.80;99.90
18502;DHT22;68437;52.236;5.710;2024-03-17T05:09:38;5.80;99.90
18502;DHT22;68437;52.236;5.710;2024-03-17T05:12:06;5.80;99.90
18502;DHT22;68437;52.236;5.710;2024-03-17T05:14:36;5.90;99.90
18502;DHT22;68437;52.236;5.710;2024-03-17T05:17:03;6.10;99.90
18502;DHT22;68437;52.236;5.710;2024-03-17T05:19:30;5.90;99.90
18502;DHT22;68437;52.236;5.710;2024-03-17T05:21:57;5.90;99.90
18502;DHT22;68437;52.236;5.710;2024-03-17T05:24:25;5.90;99.90
18502;DHT22;68437;52.236;5.710;2024-03-17T05:26:52;6.00;99.90
18502;DHT22;68437;52.236;5.710;2024-03-17T05:29:19;6.00;99.90
18502;DHT22;68437;52.236;5.710;2024-03-17T05:31:47;6.00;99.90
18502;DHT22;68437;52.236;5.710;2024-03-17T05:34:14;6.00;99.90
18502;DHT22;68437;52.236;5.710;2024-03-17T05:36:40;6.00;99.90
18502;DHT22;68437;52.236;5.710;2024-03-17T05:39:07;6.10;99.90
18502;DHT22;68437;52.236;5.710;2024-03-17T05:41:34;6.10;99.90
18502;DHT22;68437;52.236;5.710;2024-03-17T05:44:01;6.10;99.90
18502;DHT22;68437;52.236;5.710;2024-03-17T05:46:29;6.10;99.90
18502;DHT22;68437;52.236;5.710;2024-03-17T05:48:57;6.10;99.90
18502;DHT22;68437;52.236;5.710;2024-03-17T05:51:24;6.10;99.90
18502;DHT22;68437;52.236;5.710;2024-03-17T05:53:53;6.20;99.90
18502;DHT22;68437;52.236;5.710;2024-03-17T05:56:21;6.20;99.90
18502;DHT22;68437;52.236;5.710;2024-03-17T05:58:48;6.20;99.90
18502;DHT22;68437;52.236;5.710;2024-03-17T06:01:15;6.20;99.90
18502;DHT22;68437;52.236;5.710;2024-03-17T06:03:42;6.20;99.90
18502;DHT22;68437;52.236;5.710;2024-03-17T06:06:10;6.20;99.90
18502;DHT22;68437;52.236;5.710;2024-03-17T06:08:37;6.20;99.90
18502;DHT22;68437;52.236;5.710;2024-03-17T06:11:05;6.30;99.90
18502;DHT22;68437;52.236;5.710;2024-03-17T06:13:32;6.20;99.90
18502;DHT22;68437;52.236;5.710;2024-03-17T06:15:59;6.30;99.90
18502;DHT22;68437;52.236;5.710;2024-03-17T06:18:27;6.30;99.90
18502;DHT22;68437;52.236;5.710;2024-03-17T06:20:54;6.30;99.90
18502;DHT22;68437;52.236;5.710;2024-03-17T06:23:25;6.30;99.90
18502;DHT22;68437;52.236;5.710;2024-03-17T06:25:53;6.40;99.90
18502;DHT22;68437;52.236;5.710;2024-03-17T06:28:21;6.40;99.90
18502;DHT22;68437;52.236;5.710;2024-03-17T06:30:54;6.50;99.90
18502;DHT22;68437;52.236;5.710;2024-03-17T06:33:21;6.60;99.90
18502;DHT22;68437;52.236;5.710;2024-03-17T06:35:48;6.60;99.90
18502;DHT22;68437;52.236;5.710;2024-03-17T06:38:15;6.70;99.90
18502;DHT22;68437;52.236;5.710;2024-03-17T06:40:48;6.80;99.90
18502;DHT22;68437;52.236;5.710;2024-03-17T06:43:15;6.90;99.90
18502;DHT22;68437;52.236;5.710;2024-03-17T06:45:42;6.90;99.90
18502;DHT22;68437;52.236;5.710;2024-03-17T06:48:09;7.00;99.90
18502;DHT22;68437;52.236;5.710;2024-03-17T06:50:38;7.00;99.90
18502;DHT22;68437;52.236;5.710;2024-03-17T06:53:07;7.10;99.90
18502;DHT22;68437;52.236;5.710;2024-03-17T06:55:35;7.20;99.90
18502;DHT22;68437;52.236;5.710;2024-03-17T06:58:03;7.20;99.90
18502;DHT22;68437;52.236;5.710;2024-03-17T07:00:30;7.20;99.90
18502;DHT22;68437;52.236;5.710;2024-03-17T07:02:57;7.30;99.90
18502;DHT22;68437;52.236;5.710;2024-03-17T07:05:25;7.30;99.90
18502;DHT22;68437;52.236;5.710;2024-03-17T07:07:52;7.30;99.90
18502;DHT22;68437;52.236;5.710;2024-03-17T07:10:18;7.30;99.90
18502;DHT22;68437;52.236;5.710;2024-03-17T07:12:45;7.30;99.90
18502;DHT22;68437;52.236;5.710;2024-03-17T07:15:13;7.40;99.90
18502;DHT22;68437;52.236;5.710;2024-03-17T07:17:40;7.40;99.90
18502;DHT22;68437;52.236;5.710;2024-03-17T07:20:07;7.40;99.90
18502;DHT22;68437;52.236;5.710;2024-03-17T07:22:38;7.50;99.90
18502;DHT22;68437;52.236;5.710;2024-03-17T07:25:05;7.60;99.90
18502;DHT22;68437;52.236;5.710;2024-03-17T07:27:32;7.70;99.90
18502;DHT22;68437;52.236;5.710;2024-03-17T07:29:59;7.80;99.90
18502;DHT22;68437;52.236;5.710;2024-03-17T07:32:27;7.90;99.90
18502;DHT22;68437;52.236;5.710;2024-03-17T07:34:54;8.10;99.90
18502;DHT22;68437;52.236;5.710;2024-03-17T07:37:21;8.20;99.90
18502;DHT22;68437;52.236;5.710;2024-03-17T07:39:50;8.20;99.90
18502;DHT22;68437;52.236;5.710;2024-03-17T07:42:17;8.30;99.90
18502;DHT22;68437;52.236;5.710;2024-03-17T07:44:44;8.40;99.90
18502;DHT22;68437;52.236;5.710;2024-03-17T07:47:11;8.40;99.90
18502;DHT22;68437;52.236;5.710;2024-03-17T07:49:39;8.50;99.90
18502;DHT22;68437;52.236;5.710;2024-03-17T07:52:07;8.50;99.90
18502;DHT22;68437;52.236;5.710;2024-03-17T07:54:34;8.60;99.90
18502;DHT22;68437;52.236;5.710;2024-03-17T07:57:02;8.70;99.90
18502;DHT22;68437;52.236;5.710;2024-03-17T07:59:29;8.80;99.90
18502;DHT22;68437;52.236;5.710;2024-03-17T08:01:56;8.80;99.90
18502;DHT22;68437;52.236;5.710;2024-03-17T08:04:23;8.90;99.90
18502;DHT22;68437;52.236;5.710;2024-03-17T08:06:51;9.00;99.90
18502;DHT22;68437;52.236;5.710;2024-03-17T08:09:18;9.10;99.90
18502;DHT22;68437;52.236;5.710;2024-03-17T08:11:45;9.30;99.90
18502;DHT22;68437;52.236;5.710;2024-03-17T08:14:13;9.40;99.90
18502;DHT22;68437;52.236;5.710;2024-03-17T08:16:41;9.50;99.90
18502;DHT22;68437;52.236;5.710;2024-03-17T08:19:08;9.60;99.90
18502;DHT22;68437;52.236;5.710;2024-03-17T08:21:35;9.70;99.90
18502;DHT22;68437;52.236;5.710;2024-03-17T08:24:03;9.80;99.90
18502;DHT22;68437;52.236;5.710;2024-03-17T08:26:30;10.00;99.90
18502;DHT22;68437;52.236;5.710;2024-03-17T08:28:57;10.10;99.90
18502;DHT22;68437;52.236;5.710;2024-03-17T08:31:24;10.20;99.90
18502;DHT22;68437;52.236;5.710;2024-03-17T08:33:51;10.30;99.90
18502;DHT22;68437;52.236;5.710;2024-03-17T08:36:18;10.20;99.90
18502;DHT22;68437;52.236;5.710;2024-03-17T08:38:46;10.20;99.90
18502;DHT22;68437;52.236;5.710;2024-03-17T08:41:15;10.20;99.90
18502;DHT22;68437;52.236;5.710;2024-03-17T08:43:42;10.20;99.90
18502;DHT22;68437;52.236;5.710;2024-03-17T08:46:10;10.20;99.90
18502;DHT22;68437;52.236;5.710;2024-03-17T08:48:40;10.20;99.90
18502;DHT22;68437;52.236;5.710;2024-03-17T08:51:08;10.30;99.90
18502;DHT22;68437;52.236;5.710;2024-03-17T08:53:36;10.30;99.90
18502;DHT22;68437;52.236;5.710;2024-03-17T08:56:05;10.40;99.90
18502;DHT22;68437;52.236;5.710;2024-03-17T08:58:35;10.40;99.90
18502;DHT22;68437;52.236;5.710;2024-03-17T09:01:05;10.50;99.90
18502;DHT22;68437;52.236;5.710;2024-03-17T09:03:32;10.50;99.90
18502;DHT22;68437;52.236;5.710;2024-03-17T09:05:59;10.60;99.90
18502;DHT22;68437;52.236;5.710;2024-03-17T09:08:26;10.70;99.90
18502;DHT22;68437;52.236;5.710;2024-03-17T09:10:54;10.80;99.90
18502;DHT22;68437;52.236;5.710;2024-03-17T09:13:22;10.90;99.90
18502;DHT22;68437;52.236;5.710;2024-03-17T09:15:55;11.00;99.90
18502;DHT22;68437;52.236;5.710;2024-03-17T09:18:23;11.10;99.90
18502;DHT22;68437;52.236;5.710;2024-03-17T09:20:57;11.10;99.90
18502;DHT22;68437;52.236;5.710;2024-03-17T09:23:25;11.10;99.90
18502;DHT22;68437;52.236;5.710;2024-03-17T09:25:57;11.20;99.90
18502;DHT22;68437;52.236;5.710;2024-03-17T09:28:24;11.20;99.90
18502;DHT22;68437;52.236;5.710;2024-03-17T09:30:52;11.20;99.90
18502;DHT22;68437;52.236;5.710;2024-03-17T09:33:19;11.10;99.90
18502;DHT22;68437;52.236;5.710;2024-03-17T09:35:53;11.10;99.90
18502;DHT22;68437;52.236;5.710;2024-03-17T09:38:20;11.10;99.90
18502;DHT22;68437;52.236;5.710;2024-03-17T09:40:48;11.10;99.90
18502;DHT22;68437;52.236;5.710;2024-03-17T09:43:18;11.00;99.90
18502;DHT22;68437;52.236;5.710;2024-03-17T09:45:45;10.80;99.90
18502;DHT22;68437;52.236;5.710;2024-03-17T09:48:15;10.90;99.90
18502;DHT22;68437;52.236;5.710;2024-03-17T09:50:49;10.90;99.90
18502;DHT22;68437;52.236;5.710;2024-03-17T09:53:17;10.90;99.90
18502;DHT22;68437;52.236;5.710;2024-03-17T09:55:47;10.90;99.90
18502;DHT22;68437;52.236;5.710;2024-03-17T09:58:16;11.00;99.90
18502;DHT22;68437;52.236;5.710;2024-03-17T10:00:42;10.90;99.90
18502;DHT22;68437;52.236;5.710;2024-03-17T10:03:09;10.90;99.90
18502;DHT22;68437;52.236;5.710;2024-03-17T10:05:37;10.90;99.90
18502;DHT22;68437;52.236;5.710;2024-03-17T10:08:04;10.90;99.90
18502;DHT22;68437;52.236;5.710;2024-03-17T10:10:32;10.90;99.90
18502;DHT22;68437;52.236;5.710;2024-03-17T10:12:59;10.90;99.90
18502;DHT22;68437;52.236;5.710;2024-03-17T10:15:26;10.90;99.90
18502;DHT22;68437;52.236;5.710;2024-03-17T10:17:53;11.00;99.90
18502;DHT22;68437;52.236;5.710;2024-03-17T10:20:21;11.10;99.90
18502;DHT22;68437;52.236;5.710;2024-03-17T10:23:04;11.20;99.90
18502;DHT22;68437;52.236;5.710;2024-03-17T10:25:33;11.40;99.90
18502;DHT22;68437;52.236;5.710;2024-03-17T10:28:01;11.50;99.90
18502;DHT22;68437;52.236;5.710;2024-03-17T10:30:28;11.50;99.90
18502;DHT22;68437;52.236;5.710;2024-03-17T10:32:57;11.60;99.90
18502;DHT22;68437;52.236;5.710;2024-03-17T10:35:32;11.70;99.90
18502;DHT22;68437;52.236;5.710;2024-03-17T10:38:00;11.80;99.90
18502;DHT22;68437;52.236;5.710;2024-03-17T10:40:29;11.90;99.90
18502;DHT22;68437;52.236;5.710;2024-03-17T10:42:57;12.10;99.90
18502;DHT22;68437;52.236;5.710;2024-03-17T10:45:25;12.20;99.90
18502;DHT22;68437;52.236;5.710;2024-03-17T10:47:53;12.30;99.90
18502;DHT22;68437;52.236;5.710;2024-03-17T10:50:21;12.30;99.90
18502;DHT22;68437;52.236;5.710;2024-03-17T10:52:50;12.30;99.90
18502;DHT22;68437;52.236;5.710;2024-03-17T10:55:21;12.30;99.90
18502;DHT22;68437;52.236;5.710;2024-03-17T10:57:50;12.30;99.90
18502;DHT22;68437;52.236;5.710;2024-03-17T11:00:18;12.30;99.90
18502;DHT22;68437;52.236;5.710;2024-03-17T11:02:48;12.40;99.90
18502;DHT22;68437;52.236;5.710;2024-03-17T11:05:18;12.40;99.90
18502;DHT22;68437;52.236;5.710;2024-03-17T11:07:48;12.50;99.90
18502;DHT22;68437;52.236;5.710;2024-03-17T11:10:16;12.50;99.90
18502;DHT22;68437;52.236;5.710;2024-03-17T11:12:46;12.50;99.90
18502;DHT22;68437;52.236;5.710;2024-03-17T11:15:36;12.50;99.90
18502;DHT22;68437;52.236;5.710;2024-03-17T11:18:36;12.50;99.90
18502;DHT22;68437;52.236;5.710;2024-03-17T11:21:05;12.70;99.90
18502;DHT22;68437;52.236;5.710;2024-03-17T11:23:41;12.90;99.90
18502;DHT22;68437;52.236;5.710;2024-03-17T11:26:08;13.00;99.90
18502;DHT22;68437;52.236;5.710;2024-03-17T11:28:48;13.20;99.90
18502;DHT22;68437;52.236;5.710;2024-03-17T11:31:37;13.30;99.90
18502;DHT22;68437;52.236;5.710;2024-03-17T11:36:52;13.60;99.90
18502;DHT22;68437;52.236;5.710;2024-03-17T11:39:20;13.70;99.90
18502;DHT22;68437;52.236;5.710;2024-03-17T11:41:49;13.80;99.90
18502;DHT22;68437;52.236;5.710;2024-03-17T11:44:24;13.80;99.90
18502;DHT22;68437;52.236;5.710;2024-03-17T11:46:56;13.80;99.90
18502;DHT22;68437;52.236;5.710;2024-03-17T11:49:24;13.80;99.90
18502;DHT22;68437;52.236;5.710;2024-03-17T11:51:53;13.90;99.90
18502;DHT22;68437;52.236;5.710;2024-03-17T11:54:21;14.00;99.90
18502;DHT22;68437;52.236;5.710;2024-03-17T11:56:51;14.00;99.90
18502;DHT22;68437;52.236;5.710;2024-03-17T11:59:17;14.10;99.90
18502;DHT22;68437;52.236;5.710;2024-03-17T12:01:45;14.20;99.90
18502;DHT22;68437;52.236;5.710;2024-03-17T12:04:14;14.30;99.90
18502;DHT22;68437;52.236;5.710;2024-03-17T12:06:44;14.20;99.90
18502;DHT22;68437;52.236;5.710;2024-03-17T12:09:17;14.10;99.90
18502;DHT22;68437;52.236;5.710;2024-03-17T12:11:46;14.10;99.90
18502;DHT22;68437;52.236;5.710;2024-03-17T12:14:16;14.10;99.90
18502;DHT22;68437;52.236;5.710;2024-03-17T12:16:51;14.00;99.90
18502;DHT22;68437;52.236;5.710;2024-03-17T12:19:19;13.90;99.90
18502;DHT22;68437;52.236;5.710;2024-03-17T12:21:48;13.70;99.90
18502;DHT22;68437;52.236;5.710;2024-03-17T12:24:19;13.60;99.90
18502;DHT22;68437;52.236;5.710;2024-03-17T12:26:47;13.70;99.90
18502;DHT22;68437;52.236;5.710;2024-03-17T12:29:24;13.70;99.90
18502;DHT22;68437;52.236;5.710;2024-03-17T12:31:53;13.70;99.90
18502;DHT22;68437;52.236;5.710;2024-03-17T12:34:25;13.80;99.90
18502;DHT22;68437;52.236;5.710;2024-03-17T12:36:53;13.80;99.90
18502;DHT22;68437;52.236;5.710;2024-03-17T12:39:20;13.80;99.90
18502;DHT22;68437;52.236;5.710;2024-03-17T12:42:04;13.80;99.90
18502;DHT22;68437;52.236;5.710;2024-03-17T12:44:31;13.70;99.90
18502;DHT22;68437;52.236;5.710;2024-03-17T12:46:59;13.60;99.90
18502;DHT22;68437;52.236;5.710;2024-03-17T12:49:28;13.50;99.90
18502;DHT22;68437;52.236;5.710;2024-03-17T12:51:55;13.30;99.90
18502;DHT22;68437;52.236;5.710;2024-03-17T12:54:25;13.30;99.90
18502;DHT22;68437;52.236;5.710;2024-03-17T12:57:03;13.20;99.90
18502;DHT22;68437;52.236;5.710;2024-03-17T12:59:48;13.10;99.90
18502;DHT22;68437;52.236;5.710;2024-03-17T13:02:40;13.20;99.90
18502;DHT22;68437;52.236;5.710;2024-03-17T13:05:19;13.30;99.90
18502;DHT22;68437;52.236;5.710;2024-03-17T13:07:49;13.30;99.90
18502;DHT22;68437;52.236;5.710;2024-03-17T13:10:17;13.40;99.90
18502;DHT22;68437;52.236;5.710;2024-03-17T13:12:45;13.40;99.90
18502;DHT22;68437;52.236;5.710;2024-03-17T13:15:13;13.40;99.90
18502;DHT22;68437;52.236;5.710;2024-03-17T13:17:44;13.40;99.90
18502;DHT22;68437;52.236;5.710;2024-03-17T13:20:13;13.40;99.90
18502;DHT22;68437;52.236;5.710;2024-03-17T13:22:43;13.40;99.90
18502;DHT22;68437;52.236;5.710;2024-03-17T13:25:14;13.50;99.90
18502;DHT22;68437;52.236;5.710;2024-03-17T13:27:42;13.50;99.90
18502;DHT22;68437;52.236;5.710;2024-03-17T13:30:11;13.40;99.90
18502;DHT22;68437;52.236;5.710;2024-03-17T13:32:38;13.30;99.90
18502;DHT22;68437;52.236;5.710;2024-03-17T13:35:14;13.30;99.90
18502;DHT22;68437;52.236;5.710;2024-03-17T13:37:43;13.30;99.90
18502;DHT22;68437;52.236;5.710;2024-03-17T13:40:11;13.40;99.90
18502;DHT22;68437;52.236;5.710;2024-03-17T13:42:41;13.40;99.90
18502;DHT22;68437;52.236;5.710;2024-03-17T13:45:11;13.40;99.90
18502;DHT22;68437;52.236;5.710;2024-03-17T13:47:38;13.30;99.90
18502;DHT22;68437;52.236;5.710;2024-03-17T13:50:06;13.30;99.90
18502;DHT22;68437;52.236;5.710;2024-03-17T13:52:36;13.30;99.90
18502;DHT22;68437;52.236;5.710;2024-03-17T13:55:05;13.20;99.90
18502;DHT22;68437;52.236;5.710;2024-03-17T13:57:33;13.20;99.90
18502;DHT22;68437;52.236;5.710;2024-03-17T13:59:59;13.20;99.90
18502;DHT22;68437;52.236;5.710;2024-03-17T14:02:26;13.30;99.90
18502;DHT22;68437;52.236;5.710;2024-03-17T14:04:53;13.40;99.90
18502;DHT22;68437;52.236;5.710;2024-03-17T14:07:20;13.30;99.90
18502;DHT22;68437;52.236;5.710;2024-03-17T14:09:47;13.20;99.90
18502;DHT22;68437;52.236;5.710;2024-03-17T14:12:15;13.20;99.90
18502;DHT22;68437;52.236;5.710;2024-03-17T14:14:42;13.00;99.90
18502;DHT22;68437;52.236;5.710;2024-03-17T14:17:09;13.00;99.90
18502;DHT22;68437;52.236;5.710;2024-03-17T14:19:36;13.00;99.90
18502;DHT22;68437;52.236;5.710;2024-03-17T14:22:02;12.90;99.90
18502;DHT22;68437;52.236;5.710;2024-03-17T14:24:29;13.00;99.90
18502;DHT22;68437;52.236;5.710;2024-03-17T14:26:56;12.90;99.90
18502;DHT22;68437;52.236;5.710;2024-03-17T14:29:24;12.90;99.90
18502;DHT22;68437;52.236;5.710;2024-03-17T14:31:52;12.90;99.90
18502;DHT22;68437;52.236;5.710;2024-03-17T14:34:18;12.90;99.90
18502;DHT22;68437;52.236;5.710;2024-03-17T14:36:46;12.90;99.90
18502;DHT22;68437;52.236;5.710;2024-03-17T14:39:12;13.00;99.90
18502;DHT22;68437;52.236;5.710;2024-03-17T14:41:39;13.00;99.90
18502;DHT22;68437;52.236;5.710;2024-03-17T14:44:06;13.00;99.90
18502;DHT22;68437;52.236;5.710;2024-03-17T14:46:35;13.10;99.90
18502;DHT22;68437;52.236;5.710;2024-03-17T14:49:03;13.00;99.90
18502;DHT22;68437;52.236;5.710;2024-03-17T14:51:30;13.00;99.90
18502;DHT22;68437;52.236;5.710;2024-03-17T14:53:57;13.00;99.90
18502;DHT22;68437;52.236;5.710;2024-03-17T14:56:26;13.00;99.90
18502;DHT22;68437;52.236;5.710;2024-03-17T14:58:52;13.10;99.90
18502;DHT22;68437;52.236;5.710;2024-03-17T15:01:20;13.10;99.90
18502;DHT22;68437;52.236;5.710;2024-03-17T15:03:48;13.10;99.90
18502;DHT22;68437;52.236;5.710;2024-03-17T15:06:16;13.20;99.90
18502;DHT22;68437;52.236;5.710;2024-03-17T15:08:43;13.20;99.90
18502;DHT22;68437;52.236;5.710;2024-03-17T15:11:11;13.30;99.90
18502;DHT22;68437;52.236;5.710;2024-03-17T15:13:38;13.40;99.90
18502;DHT22;68437;52.236;5.710;2024-03-17T15:16:08;13.50;99.90
18502;DHT22;68437;52.236;5.710;2024-03-17T15:18:35;13.60;99.90
18502;DHT22;68437;52.236;5.710;2024-03-17T15:21:04;13.50;99.90
18502;DHT22;68437;52.236;5.710;2024-03-17T15:23:31;13.50;99.90
18502;DHT22;68437;52.236;5.710;2024-03-17T15:26:02;13.60;99.90
18502;DHT22;68437;52.236;5.710;2024-03-17T15:28:33;13.70;99.90
18502;DHT22;68437;52.236;5.710;2024-03-17T15:31:03;13.70;99.90
18502;DHT22;68437;52.236;5.710;2024-03-17T15:33:30;13.70;99.90
18502;DHT22;68437;52.236;5.710;2024-03-17T15:35:56;13.80;99.90
18502;DHT22;68437;52.236;5.710;2024-03-17T15:38:24;13.70;99.90
18502;DHT22;68437;52.236;5.710;2024-03-17T15:40:51;13.70;99.90
18502;DHT22;68437;52.236;5.710;2024-03-17T15:43:18;13.60;99.90
18502;DHT22;68437;52.236;5.710;2024-03-17T15:45:45;13.60;99.90
18502;DHT22;68437;52.236;5.710;2024-03-17T15:48:12;13.50;99.90
18502;DHT22;68437;52.236;5.710;2024-03-17T15:50:38;13.50;99.90